createdAt,value
2022-08-03T00:07:41.358Z,68.95
2022-08-03T00:16:04.622Z,69.44
2022-08-03T00:24:27.748Z,69.75
2022-08-03T00:32:50.697Z,69.99
2022-08-03T00:41:15.551Z,70.21
2022-08-03T00:49:41.031Z,70.42
2022-08-03T00:58:06.783Z,70.24
2022-08-03T01:06:41.525Z,70.06
2022-08-03T01:15:11.601Z,70.03
2022-08-03T01:23:56.888Z,70.23
2022-08-03T01:32:58.562Z,70.26
2022-08-03T01:41:17.537Z,70.60
2022-08-03T01:49:45.223Z,70.63
2022-08-03T01:58:09.237Z,71.22
2022-08-03T02:07:01.688Z,70.84
2022-08-03T02:15:19.543Z,70.89
2022-08-03T02:23:42.461Z,70.99
2022-08-03T02:32:06.978Z,71.24
2022-08-03T02:40:33.356Z,71.04
2022-08-03T02:48:58.942Z,71.29
2022-08-03T02:57:44.963Z,71.57
2022-08-03T03:06:09.331Z,71.78
2022-08-03T03:14:34.236Z,71.85
2022-08-03T03:23:00.865Z,71.93
2022-08-03T03:31:24.129Z,72.05
2022-08-03T03:39:47.165Z,72.28
2022-08-03T03:48:10.956Z,72.55
2022-08-03T03:56:34.073Z,72.86
2022-08-03T04:05:29.570Z,72.90
2022-08-03T04:14:13.500Z,72.94
2022-08-03T04:22:39.607Z,73.24
2022-08-03T04:31:04.698Z,73.65
2022-08-03T04:39:31.258Z,73.86
2022-08-03T04:47:55.175Z,74.36
2022-08-03T04:56:18.531Z,74.60
2022-08-03T05:04:46.582Z,72.93
2022-08-03T05:13:13.082Z,72.34
2022-08-03T05:21:51.937Z,73.43
2022-08-03T05:30:27.246Z,73.54
2022-08-03T05:39:02.219Z,72.72
2022-08-03T05:47:25.428Z,70.84
2022-08-03T05:55:54.205Z,70.16
2022-08-03T06:04:18.496Z,68.67
2022-08-03T06:12:41.522Z,67.14
2022-08-03T06:21:09.548Z,64.06
2022-08-03T06:29:38.530Z,62.96
2022-08-03T06:38:01.970Z,62.69
2022-08-03T06:46:26.007Z,63.23
2022-08-03T06:54:49.190Z,63.81
2022-08-03T07:03:12.556Z,65.66
2022-08-03T07:11:35.565Z,64.53
2022-08-03T07:19:59.498Z,63.48
2022-08-03T07:28:22.990Z,64.17
2022-08-03T07:36:45.965Z,62.24
2022-08-03T07:45:09.751Z,62.17
2022-08-03T07:53:47.254Z,64.92
2022-08-03T08:02:10.915Z,64.19
2022-08-03T08:10:34.405Z,61.69
2022-08-03T08:18:57.528Z,59.39
2022-08-03T08:27:20.375Z,58.37
2022-08-03T08:35:43.655Z,57.50
2022-08-03T08:44:08.437Z,57.60
2022-08-03T08:52:33.389Z,57.67
2022-08-03T09:00:56.843Z,58.24
2022-08-03T09:10:08.362Z,58.71
2022-08-03T09:18:04.453Z,58.65
2022-08-03T09:26:29.536Z,57.92
2022-08-03T09:34:58.033Z,56.96
2022-08-03T09:43:22.521Z,57.02
2022-08-03T09:52:31.352Z,57.32
2022-08-03T10:00:29.437Z,57.07
2022-08-03T10:09:07.415Z,57.36
2022-08-03T10:17:30.255Z,55.64
2022-08-03T10:25:58.221Z,54.28
2022-08-03T10:34:27.290Z,53.41
2022-08-03T10:42:54.766Z,54.69
2022-08-03T10:51:20.574Z,53.86
2022-08-03T10:59:47.702Z,53.59
2022-08-03T11:08:21.302Z,52.99
2022-08-03T11:17:07.563Z,53.65
2022-08-03T11:26:19.563Z,53.37
2022-08-03T11:35:07.284Z,53.47
2022-08-03T11:43:31.683Z,52.90
2022-08-03T11:51:55.066Z,52.48
2022-08-03T12:00:38.161Z,52.23
2022-08-03T12:09:01.564Z,51.16
2022-08-03T12:17:24.578Z,50.50
2022-08-03T12:25:49.535Z,49.29
2022-08-03T12:34:13.835Z,49.42
2022-08-03T12:42:39.343Z,49.23
2022-08-03T12:51:12.058Z,49.31
2022-08-03T12:59:45.160Z,48.72
2022-08-03T13:08:21.031Z,48.34
2022-08-03T13:16:44.100Z,48.31
2022-08-03T13:25:07.263Z,47.46
2022-08-03T13:33:30.620Z,47.87
2022-08-03T13:41:54.309Z,48.25
2022-08-03T13:50:17.438Z,47.91
2022-08-03T13:58:40.591Z,47.48
2022-08-03T14:07:03.520Z,47.21
2022-08-03T14:15:28.914Z,47.48
2022-08-03T14:23:51.824Z,47.74
2022-08-03T14:32:15.370Z,47.58
2022-08-03T14:40:38.910Z,46.55
2022-08-03T14:49:02.621Z,46.82
2022-08-03T14:57:46.322Z,46.64
2022-08-03T15:06:09.353Z,46.60
2022-08-03T15:14:34.866Z,46.51
2022-08-03T15:22:57.993Z,46.69
2022-08-03T15:31:25.060Z,47.02
2022-08-03T15:39:58.168Z,47.83
2022-08-03T15:48:26.526Z,47.89
2022-08-03T15:56:49.803Z,47.95
2022-08-03T16:05:13.333Z,48.03
2022-08-03T16:14:11.961Z,47.65
2022-08-03T16:22:19.604Z,47.29
2022-08-03T16:30:46.668Z,47.40
2022-08-03T16:39:09.626Z,47.33
2022-08-03T16:47:32.676Z,47.72
2022-08-03T16:55:55.673Z,47.92
2022-08-03T17:04:19.114Z,48.04
2022-08-03T17:12:42.469Z,48.16
2022-08-03T17:21:08.022Z,48.81
2022-08-03T17:29:35.394Z,49.13
2022-08-03T17:38:06.659Z,49.49
2022-08-03T17:46:32.540Z,49.94
2022-08-03T18:04:11.895Z,51.34
2022-08-03T18:12:43.289Z,52.50
2022-08-03T18:21:16.691Z,53.45
2022-08-03T18:29:45.892Z,54.45
2022-08-03T18:38:16.958Z,55.18
2022-08-03T18:47:07.541Z,56.00
2022-08-03T18:56:01.195Z,56.79
2022-08-03T19:04:31.118Z,57.36
2022-08-03T19:13:02.996Z,57.55
2022-08-03T19:21:34.674Z,58.12
2022-08-03T19:30:03.074Z,59.08
2022-08-03T19:38:28.949Z,59.98
2022-08-03T19:47:01.400Z,59.82
2022-08-03T19:55:32.207Z,60.29
2022-08-03T20:03:56.646Z,60.81
2022-08-03T20:12:26.476Z,61.13
2022-08-03T20:20:53.355Z,61.49
2022-08-03T20:29:42.524Z,61.78
2022-08-03T20:38:09.903Z,62.27
2022-08-03T20:46:44.078Z,62.57
2022-08-03T20:55:14.727Z,63.12
2022-08-03T21:03:40.571Z,62.97
2022-08-03T21:12:08.435Z,63.20
2022-08-03T21:13:04.565Z,50.53
2022-08-03T21:20:35.061Z,63.55
2022-08-03T21:28:58.190Z,63.53
2022-08-03T21:37:21.913Z,63.93
2022-08-03T21:46:04.145Z,64.21
2022-08-03T21:54:36.749Z,64.30
2022-08-03T22:03:15.367Z,64.26
2022-08-03T22:11:42.712Z,64.47
2022-08-03T22:20:11.674Z,64.32
2022-08-03T22:28:35.575Z,64.78
2022-08-03T22:37:03.296Z,64.94
2022-08-03T22:45:45.836Z,64.87
2022-08-03T22:54:12.470Z,64.92
2022-08-03T23:02:42.360Z,64.80
2022-08-03T23:11:08.726Z,65.05
2022-08-03T23:19:41.714Z,65.04
2022-08-03T23:28:11.034Z,65.43
2022-08-03T23:36:33.892Z,65.28
2022-08-03T23:44:59.378Z,65.46
2022-08-03T23:54:07.493Z,65.60
